createdAt,value
2023-03-11T00:04:28.969Z,1.66
2023-03-11T00:09:31.862Z,1.68
2023-03-11T00:14:35.063Z,1.66
2023-03-11T00:19:37.981Z,1.65
2023-03-11T00:24:41.297Z,1.63
2023-03-11T00:29:44.193Z,1.61
2023-03-11T00:34:47.097Z,1.60
2023-03-11T00:39:50.312Z,1.60
2023-03-11T00:44:53.417Z,1.64
2023-03-11T00:49:56.333Z,1.70
2023-03-11T00:54:59.950Z,1.76
2023-03-11T01:00:04.278Z,1.80
2023-03-11T01:05:08.661Z,1.78
2023-03-11T01:10:12.963Z,1.75
2023-03-11T01:15:31.870Z,1.69
2023-03-11T01:20:36.686Z,1.67
2023-03-11T01:25:40.228Z,1.67
2023-03-11T01:30:43.439Z,1.69
2023-03-11T01:35:46.871Z,1.68
2023-03-11T01:40:51.985Z,1.65
2023-03-11T01:45:54.885Z,1.66
2023-03-11T01:50:59.442Z,1.65
2023-03-11T01:56:04.089Z,1.61
2023-03-11T02:01:08.027Z,1.55
2023-03-11T02:06:22.266Z,1.49
2023-03-11T02:11:30.410Z,1.46
2023-03-11T02:16:33.662Z,1.46
2023-03-11T02:21:36.834Z,1.50
2023-03-11T02:26:55.096Z,1.55
2023-03-11T02:31:59.746Z,1.58
2023-03-11T02:37:11.547Z,1.56
2023-03-11T02:42:23.570Z,1.51
2023-03-11T02:47:27.124Z,1.47
2023-03-11T02:52:34.405Z,1.46
2023-03-11T02:57:37.292Z,1.47
2023-03-11T03:02:40.500Z,1.49
2023-03-11T03:07:43.412Z,1.51
2023-03-11T03:12:46.308Z,1.48
2023-03-11T03:17:51.795Z,1.47
2023-03-11T03:22:55.596Z,1.45
2023-03-11T03:27:59.116Z,1.39
2023-03-11T03:33:02.019Z,1.33
2023-03-11T03:38:04.924Z,1.31
2023-03-11T03:43:07.828Z,1.31
2023-03-11T03:48:10.733Z,1.32
2023-03-11T03:53:13.945Z,1.32
2023-03-11T03:58:16.951Z,1.33
2023-03-11T04:03:19.930Z,1.32
2023-03-11T04:08:23.067Z,1.25
2023-03-11T04:13:25.980Z,1.18
2023-03-11T04:18:28.880Z,1.15
2023-03-11T04:23:31.894Z,1.16
2023-03-11T04:28:34.792Z,1.18
2023-03-11T04:33:37.693Z,1.22
2023-03-11T04:38:40.591Z,1.20
2023-03-11T04:43:43.498Z,1.18
2023-03-11T04:48:46.397Z,1.15
2023-03-11T04:53:49.315Z,1.14
2023-03-11T04:58:52.417Z,1.15
2023-03-11T05:03:55.521Z,1.18
2023-03-11T05:08:59.241Z,1.22
2023-03-11T05:14:03.585Z,1.26
2023-03-11T05:19:26.455Z,1.25
2023-03-11T05:24:29.662Z,1.19
2023-03-11T05:29:32.882Z,1.19
2023-03-11T05:34:35.779Z,1.22
2023-03-11T05:39:38.890Z,1.26
2023-03-11T05:44:42.518Z,1.30
2023-03-11T05:49:48.727Z,1.30
2023-03-11T05:54:52.074Z,1.26
2023-03-11T05:59:55.016Z,1.23
2023-03-11T06:04:58.478Z,1.19
2023-03-11T06:10:02.666Z,1.19
2023-03-11T06:15:07.648Z,1.21
2023-03-11T06:20:11.658Z,1.18
2023-03-11T06:25:14.648Z,1.10
2023-03-11T06:30:19.014Z,1.02
2023-03-11T06:35:22.195Z,0.91
2023-03-11T06:40:25.131Z,0.86
2023-03-11T06:45:28.846Z,0.89
2023-03-11T06:50:32.137Z,0.95
2023-03-11T06:55:35.979Z,1.08
2023-03-11T07:00:40.156Z,1.24
2023-03-11T07:05:45.464Z,1.37
2023-03-11T07:11:01.274Z,1.44
2023-03-11T07:16:13.171Z,1.54
2023-03-11T07:21:19.054Z,1.66
2023-03-11T07:26:23.770Z,1.78
2023-03-11T07:31:30.261Z,1.90
2023-03-11T07:36:33.411Z,2.00
2023-03-11T07:41:36.923Z,2.12
2023-03-11T07:46:40.539Z,2.21
2023-03-11T07:51:44.108Z,2.30
2023-03-11T07:56:47.365Z,2.47
2023-03-11T08:01:50.885Z,2.61
2023-03-11T08:06:53.792Z,2.80
2023-03-11T08:11:56.686Z,3.12
2023-03-11T08:16:59.598Z,3.48
2023-03-11T08:22:03.618Z,3.55
2023-03-11T08:27:06.535Z,3.36
2023-03-11T08:32:09.444Z,3.27
2023-03-11T08:37:12.648Z,3.23
2023-03-11T08:42:17.274Z,3.00
2023-03-11T08:47:20.128Z,2.75
2023-03-11T08:52:22.998Z,2.64
2023-03-11T08:57:26.028Z,2.63
2023-03-11T09:02:28.981Z,2.59
2023-03-11T09:07:32.016Z,2.49
2023-03-11T09:12:35.020Z,2.43
2023-03-11T09:17:38.028Z,2.31
2023-03-11T09:22:41.585Z,2.18
2023-03-11T09:27:44.454Z,2.11
2023-03-11T09:32:47.322Z,2.05
2023-03-11T09:37:50.369Z,1.99
2023-03-11T09:42:59.409Z,1.93
2023-03-11T09:48:08.051Z,1.92
2023-03-11T09:53:32.976Z,1.92
2023-03-11T09:58:47.458Z,1.91
2023-03-11T10:03:54.856Z,1.92
2023-03-11T10:09:23.685Z,1.90
2023-03-11T10:14:35.998Z,1.85
2023-03-11T10:19:57.842Z,1.81
2023-03-11T10:25:18.901Z,1.80
2023-03-11T10:30:51.680Z,1.83
2023-03-11T10:35:59.109Z,1.95
2023-03-11T10:41:27.182Z,2.09
2023-03-11T10:46:30.186Z,2.11
2023-03-11T10:51:35.519Z,2.03
2023-03-11T10:56:41.640Z,2.08
2023-03-11T11:01:56.341Z,2.26
2023-03-11T11:07:19.388Z,2.42
2023-03-11T11:12:22.296Z,2.52
2023-03-11T11:17:30.968Z,2.47
2023-03-11T11:22:34.053Z,2.38
2023-03-11T11:27:37.043Z,2.27
2023-03-11T11:32:40.324Z,2.14
2023-03-11T11:37:48.689Z,2.09
2023-03-11T11:42:57.961Z,2.00
2023-03-11T11:48:07.309Z,2.03
2023-03-11T11:53:42.334Z,2.30
2023-03-11T11:58:45.577Z,2.55
2023-03-11T12:04:13.249Z,2.47
2023-03-11T12:09:47.797Z,2.23
2023-03-11T12:14:57.775Z,2.04
2023-03-11T12:20:03.330Z,2.01
2023-03-11T12:25:30.399Z,2.02
2023-03-11T12:30:39.036Z,2.05
2023-03-11T12:35:54.435Z,2.05
2023-03-11T12:41:26.733Z,2.02
2023-03-11T12:46:54.965Z,2.15
2023-03-11T12:52:11.141Z,2.41
2023-03-11T12:57:17.341Z,2.55
2023-03-11T13:02:51.620Z,2.60
2023-03-11T13:08:03.487Z,2.59
2023-03-11T13:13:31.475Z,2.65
2023-03-11T13:18:34.385Z,3.03
2023-03-11T13:23:40.470Z,3.42
2023-03-11T13:28:52.168Z,3.76
2023-03-11T13:34:00.607Z,3.78
2023-03-11T13:39:34.945Z,3.60
2023-03-11T13:44:40.413Z,3.42
2023-03-11T13:49:45.679Z,3.27
2023-03-11T13:54:53.387Z,3.23
2023-03-11T13:59:57.510Z,4.14
2023-03-11T14:05:07.209Z,5.57
2023-03-11T14:10:28.911Z,5.56
2023-03-11T14:15:56.202Z,5.03
2023-03-11T14:21:00.422Z,4.10
2023-03-11T14:26:07.963Z,3.35
2023-03-11T14:31:25.783Z,2.68
2023-03-11T14:36:28.805Z,2.26
2023-03-11T14:41:32.017Z,1.99
2023-03-11T14:46:35.128Z,1.94
2023-03-11T14:51:38.456Z,2.08
2023-03-11T14:56:47.980Z,2.08
2023-03-11T15:01:51.679Z,1.97
2023-03-11T15:06:55.498Z,1.87
2023-03-11T15:12:00.678Z,1.76
2023-03-11T15:17:39.896Z,1.64
2023-03-11T15:22:47.064Z,1.51
2023-03-11T15:27:50.069Z,1.44
2023-03-11T15:32:53.473Z,1.38
2023-03-11T15:38:13.609Z,1.32
2023-03-11T15:43:20.185Z,1.39
2023-03-11T15:48:24.112Z,1.58
2023-03-11T15:53:29.068Z,1.62
2023-03-11T15:58:32.181Z,1.47
2023-03-11T16:03:35.325Z,1.32
2023-03-11T16:08:38.282Z,1.22
2023-03-11T16:13:42.113Z,1.10
2023-03-11T16:18:45.022Z,1.02
2023-03-11T16:23:52.157Z,0.95
2023-03-11T16:28:55.441Z,0.80
2023-03-11T16:33:58.441Z,0.65
2023-03-11T16:39:03.363Z,0.51
2023-03-11T16:44:09.601Z,0.34
2023-03-11T16:49:12.985Z,0.23
2023-03-11T16:54:15.892Z,0.16
2023-03-11T16:59:18.895Z,0.08
2023-03-11T17:04:21.810Z,0.00
2023-03-11T17:09:25.225Z,-0.02
2023-03-11T17:14:29.446Z,0.01
2023-03-11T17:19:32.365Z,0.03
2023-03-11T17:24:36.298Z,0.03
2023-03-11T17:29:39.197Z,0.04
2023-03-11T17:34:42.096Z,0.02
2023-03-11T17:39:45.002Z,-0.04
2023-03-11T17:44:51.761Z,-0.10
2023-03-11T17:49:55.237Z,-0.13
2023-03-11T17:54:58.364Z,-0.19
2023-03-11T18:00:05.834Z,-0.30
2023-03-11T18:05:09.577Z,-0.41
2023-03-11T18:10:14.574Z,-0.47
2023-03-11T18:15:22.685Z,-0.55
2023-03-11T18:20:25.945Z,-0.64
2023-03-11T18:25:28.845Z,-0.71
2023-03-11T18:30:31.896Z,-0.75
2023-03-11T18:35:34.921Z,-0.73
2023-03-11T18:40:38.521Z,-0.65
2023-03-11T18:45:41.588Z,-0.54
2023-03-11T18:50:51.452Z,-0.48
2023-03-11T18:56:08.388Z,-0.49
2023-03-11T19:01:20.299Z,-0.61
2023-03-11T19:06:25.885Z,-0.77
2023-03-11T19:11:29.192Z,-0.86
2023-03-11T19:16:32.240Z,-0.91
2023-03-11T19:21:35.215Z,-1.00
2023-03-11T19:26:47.100Z,-1.11
2023-03-11T19:31:50.368Z,-1.23
2023-03-11T19:36:53.235Z,-1.33
2023-03-11T19:41:57.278Z,-1.43
2023-03-11T19:47:00.632Z,-1.53
2023-03-11T19:52:03.818Z,-1.60
2023-03-11T19:57:06.806Z,-1.64
2023-03-11T20:02:13.676Z,-1.66
2023-03-11T20:07:17.029Z,-1.68
2023-03-11T20:12:20.450Z,-1.68
2023-03-11T20:17:23.336Z,-1.66
2023-03-11T20:22:26.220Z,-1.64
2023-03-11T20:27:29.863Z,-1.59
2023-03-11T20:32:32.833Z,-1.54
2023-03-11T20:37:35.751Z,-1.57
2023-03-11T20:42:40.464Z,-1.65
2023-03-11T20:47:44.643Z,-1.73
2023-03-11T20:52:47.654Z,-1.79
2023-03-11T20:57:50.651Z,-1.87
2023-03-11T21:02:53.578Z,-1.96
2023-03-11T21:07:56.585Z,-2.01
2023-03-11T21:12:59.570Z,-2.03
2023-03-11T21:18:03.620Z,-2.08
2023-03-11T21:23:08.861Z,-2.16
2023-03-11T21:28:13.511Z,-2.20
2023-03-11T21:33:16.428Z,-2.20
2023-03-11T21:38:19.627Z,-2.22
2023-03-11T21:43:22.674Z,-2.28
2023-03-11T21:48:25.689Z,-2.32
2023-03-11T21:53:30.753Z,-2.33
2023-03-11T21:58:34.361Z,-2.33
2023-03-11T22:03:37.795Z,-2.34
2023-03-11T22:08:42.541Z,-2.34
2023-03-11T22:13:47.812Z,-2.34
2023-03-11T22:18:51.763Z,-2.39
2023-03-11T22:23:54.720Z,-2.45
2023-03-11T22:28:57.657Z,-2.47
2023-03-11T22:34:00.614Z,-2.48
2023-03-11T22:39:05.090Z,-2.51
2023-03-11T22:44:08.230Z,-2.61
2023-03-11T22:49:11.117Z,-2.70
2023-03-11T22:54:14.627Z,-2.75
2023-03-11T22:59:17.749Z,-2.76
2023-03-11T23:04:20.692Z,-2.75
2023-03-11T23:09:24.790Z,-2.68
2023-03-11T23:14:37.654Z,-2.60
2023-03-11T23:19:45.052Z,-2.49
2023-03-11T23:24:47.936Z,-2.35
2023-03-11T23:29:51.048Z,-2.13
2023-03-11T23:34:54.057Z,-1.93
2023-03-11T23:39:57.742Z,-1.75
2023-03-11T23:45:01.305Z,-1.59
2023-03-11T23:50:05.156Z,-1.47
2023-03-11T23:55:09.641Z,-1.39
